createdAt,value
2022-11-02T00:00:52.294Z,42.90
2022-11-02T00:03:19.716Z,41.42
2022-11-02T00:05:47.167Z,40.17
2022-11-02T00:08:14.580Z,38.92
2022-11-02T00:10:42.015Z,39.35
2022-11-02T00:13:09.231Z,38.60
2022-11-02T00:15:37.276Z,43.05
2022-11-02T00:18:11.924Z,40.72
2022-11-02T00:20:41.726Z,39.22
2022-11-02T00:23:12.226Z,43.08
2022-11-02T00:25:48.150Z,40.63
2022-11-02T00:28:15.827Z,43.90
2022-11-02T00:30:44.368Z,38.90
2022-11-02T00:33:12.060Z,42.33
2022-11-02T00:35:40.478Z,40.78
2022-11-02T00:38:08.295Z,41.75
2022-11-02T00:40:35.776Z,38.90
2022-11-02T00:43:03.215Z,35.70
2022-11-02T00:45:30.513Z,40.47
2022-11-02T00:47:58.022Z,40.67
2022-11-02T00:50:25.277Z,41.72
2022-11-02T00:52:52.513Z,37.80
2022-11-02T00:55:20.724Z,37.33
2022-11-02T00:57:48.067Z,39.85
2022-11-02T01:00:16.391Z,41.33
2022-11-02T01:02:44.001Z,42.63
2022-11-02T01:05:12.355Z,43.50
2022-11-02T01:07:40.748Z,42.70
2022-11-02T01:10:10.274Z,43.58
2022-11-02T01:12:40.296Z,46.58
2022-11-02T01:15:10.487Z,47.65
2022-11-02T01:17:38.850Z,49.85
2022-11-02T01:20:08.057Z,52.45
2022-11-02T01:22:35.839Z,49.20
2022-11-02T01:25:04.131Z,57.40
2022-11-02T01:27:32.022Z,56.40
2022-11-02T01:30:00.374Z,54.50
2022-11-02T01:32:30.801Z,54.60
2022-11-02T01:34:58.388Z,61.92
2022-11-02T01:37:26.050Z,57.80
2022-11-02T01:39:56.141Z,52.33
2022-11-02T01:42:30.863Z,52.78
2022-11-02T01:45:18.687Z,53.28
2022-11-02T01:47:48.928Z,51.10
2022-11-02T01:50:26.249Z,59.05
2022-11-02T01:52:57.519Z,50.25
2022-11-02T01:55:30.484Z,51.63
2022-11-02T01:58:10.280Z,52.97
2022-11-02T02:00:38.669Z,50.35
2022-11-02T02:03:18.232Z,55.15
2022-11-02T02:06:14.841Z,56.08
2022-11-02T02:08:48.872Z,49.55
2022-11-02T02:11:37.728Z,55.38
2022-11-02T02:14:18.902Z,49.22
2022-11-02T02:17:27.451Z,51.40
2022-11-02T02:20:43.589Z,50.15
2022-11-02T02:24:31.457Z,50.20
2022-11-02T02:27:16.895Z,47.45
2022-11-02T02:30:01.907Z,53.53
2022-11-02T02:33:03.406Z,54.20
2022-11-02T02:35:57.594Z,50.50
2022-11-02T02:38:39.044Z,53.17
2022-11-02T02:41:24.965Z,52.13
2022-11-02T02:46:29.922Z,51.20
2022-11-02T02:48:59.534Z,52.20
2022-11-02T02:51:33.686Z,50.38
2022-11-02T02:54:11.460Z,47.75
2022-11-02T02:56:54.331Z,47.15
2022-11-02T02:59:44.962Z,49.05
2022-11-02T03:02:28.962Z,48.15
2022-11-02T03:04:56.647Z,47.65
2022-11-02T03:07:33.819Z,43.25
2022-11-02T03:10:19.859Z,44.92
2022-11-02T03:13:45.720Z,47.08
2022-11-02T03:16:44.577Z,46.70
2022-11-02T03:19:29.721Z,46.03
2022-11-02T03:22:19.144Z,44.47
2022-11-02T03:25:22.128Z,44.42
2022-11-02T03:28:17.418Z,45.78
2022-11-02T03:31:21.976Z,48.63
2022-11-02T03:34:07.918Z,49.78
2022-11-02T03:39:37.167Z,46.35
2022-11-02T03:42:06.939Z,42.58
2022-11-02T03:44:40.217Z,48.90
2022-11-02T03:47:13.471Z,49.78
2022-11-02T03:49:42.995Z,51.45
2022-11-02T03:52:29.211Z,50.75
2022-11-02T03:57:52.103Z,48.90
2022-11-02T04:00:27.756Z,48.47
2022-11-02T04:03:04.287Z,49.97
2022-11-02T04:05:37.002Z,41.00
2022-11-02T04:08:44.111Z,45.10
2022-11-02T04:11:31.132Z,36.92
2022-11-02T04:14:22.488Z,41.72
2022-11-02T04:17:10.516Z,47.17
2022-11-02T04:19:39.114Z,42.28
2022-11-02T04:22:27.219Z,41.88
2022-11-02T04:25:20.642Z,42.22
2022-11-02T04:28:09.864Z,43.58
2022-11-02T04:30:46.112Z,44.05
2022-11-02T04:33:33.407Z,45.58
2022-11-02T04:36:09.891Z,45.25
2022-11-02T04:38:43.148Z,44.97
2022-11-02T04:41:47.002Z,43.72
2022-11-02T04:44:29.092Z,43.05
2022-11-02T04:47:06.379Z,47.88
2022-11-02T04:49:35.445Z,48.00
2022-11-02T04:52:05.209Z,43.30
2022-11-02T04:54:34.926Z,50.00
2022-11-02T04:57:04.384Z,48.58
2022-11-02T04:59:33.507Z,51.17
2022-11-02T05:02:00.952Z,49.90
2022-11-02T05:04:29.389Z,49.28
2022-11-02T05:07:01.437Z,49.63
2022-11-02T05:09:31.683Z,49.80
2022-11-02T05:12:00.026Z,49.45
2022-11-02T05:14:28.409Z,50.00
2022-11-02T05:16:57.936Z,49.92
2022-11-02T05:19:25.390Z,50.40
2022-11-02T05:21:53.338Z,49.10
2022-11-02T05:24:20.991Z,47.13
2022-11-02T05:26:53.779Z,46.92
2022-11-02T05:29:23.948Z,45.95
2022-11-02T05:31:53.197Z,46.88
2022-11-02T05:34:20.755Z,43.33
2022-11-02T05:36:49.826Z,44.20
2022-11-02T05:39:17.413Z,42.85
2022-11-02T05:41:44.992Z,45.50
2022-11-02T05:44:13.769Z,39.83
2022-11-02T05:46:43.800Z,40.13
2022-11-02T05:49:11.098Z,42.25
2022-11-02T05:51:38.467Z,40.50
2022-11-02T05:54:05.855Z,38.13
2022-11-02T05:56:33.196Z,40.30
2022-11-02T05:59:00.811Z,38.67
2022-11-02T06:01:28.254Z,39.78
2022-11-02T06:03:55.507Z,37.20
2022-11-02T06:06:23.857Z,34.15
2022-11-02T06:08:51.208Z,37.15
2022-11-02T06:11:18.850Z,37.33
2022-11-02T06:13:50.874Z,39.38
2022-11-02T06:16:22.578Z,39.72
2022-11-02T06:18:50.847Z,38.50
2022-11-02T06:21:18.263Z,38.85
2022-11-02T06:23:49.024Z,38.15
2022-11-02T06:26:16.864Z,37.67
2022-11-02T06:28:44.133Z,39.70
2022-11-02T06:31:13.734Z,39.75
2022-11-02T06:33:42.093Z,39.92
2022-11-02T06:36:10.379Z,36.40
2022-11-02T06:38:38.651Z,37.30
2022-11-02T06:41:06.733Z,41.78
2022-11-02T06:43:38.032Z,41.70
2022-11-02T06:46:06.251Z,40.08
2022-11-02T06:48:35.611Z,39.55
2022-11-02T06:51:05.219Z,40.30
2022-11-02T06:53:33.302Z,40.03
2022-11-02T06:56:01.319Z,41.58
2022-11-02T06:58:29.147Z,37.08
2022-11-02T07:01:04.043Z,34.40
2022-11-02T07:03:32.538Z,37.97
2022-11-02T07:06:00.647Z,37.05
2022-11-02T07:08:28.658Z,36.15
2022-11-02T07:10:56.784Z,38.50
2022-11-02T07:13:25.029Z,33.97
2022-11-02T07:15:54.626Z,35.58
2022-11-02T07:18:23.367Z,36.57
2022-11-02T07:20:50.929Z,36.08
2022-11-02T07:23:18.515Z,35.88
2022-11-02T07:25:45.974Z,32.80
2022-11-02T07:28:13.211Z,36.72
2022-11-02T07:30:40.545Z,35.47
2022-11-02T07:33:08.258Z,33.30
2022-11-02T07:35:35.789Z,36.42
2022-11-02T07:38:07.347Z,37.78
2022-11-02T07:40:36.355Z,33.88
2022-11-02T07:43:04.551Z,34.83
2022-11-02T07:45:50.713Z,34.78
2022-11-02T07:48:18.016Z,36.20
2022-11-02T07:50:45.233Z,34.88
2022-11-02T07:53:12.727Z,33.10
2022-11-02T07:55:41.986Z,35.33
2022-11-02T07:58:14.946Z,35.08
2022-11-02T08:00:42.945Z,34.22
2022-11-02T08:03:12.301Z,34.78
2022-11-02T08:05:43.226Z,35.03
2022-11-02T08:08:18.490Z,34.33
2022-11-02T08:10:49.277Z,32.30
2022-11-02T08:13:21.934Z,34.15
2022-11-02T08:15:52.418Z,35.95
2022-11-02T08:18:28.254Z,32.35
2022-11-02T08:20:58.313Z,33.15
2022-11-02T08:23:27.068Z,32.08
2022-11-02T08:25:55.433Z,31.92
2022-11-02T08:28:28.480Z,32.92
2022-11-02T08:30:55.673Z,32.38
2022-11-02T08:33:23.013Z,32.92
2022-11-02T08:35:50.716Z,33.22
2022-11-02T08:38:18.444Z,36.03
2022-11-02T08:40:46.099Z,34.35
2022-11-02T08:43:15.347Z,38.13
2022-11-02T08:46:14.336Z,35.35
2022-11-02T08:48:33.016Z,34.40
2022-11-02T08:51:00.432Z,33.15
2022-11-02T08:53:27.714Z,34.60
2022-11-02T08:55:59.062Z,31.38
2022-11-02T08:58:27.079Z,32.28
2022-11-02T09:00:54.558Z,31.13
2022-11-02T09:03:26.892Z,30.25
2022-11-02T09:06:01.115Z,31.25
2022-11-02T09:08:30.174Z,30.80
2022-11-02T09:11:03.615Z,32.45
2022-11-02T09:13:31.281Z,31.75
2022-11-02T09:16:00.647Z,30.60
2022-11-02T09:18:28.689Z,31.90
2022-11-02T09:20:56.654Z,31.05
2022-11-02T09:23:24.430Z,28.13
2022-11-02T09:25:51.886Z,26.88
2022-11-02T09:28:19.432Z,30.42
2022-11-02T09:30:47.408Z,26.92
2022-11-02T09:33:14.954Z,24.10
2022-11-02T09:35:47.097Z,26.48
2022-11-02T09:38:18.484Z,25.52
2022-11-02T09:41:14.712Z,26.30
2022-11-02T09:44:32.735Z,25.35
2022-11-02T09:47:49.640Z,25.83
2022-11-02T09:49:50.448Z,24.52
2022-11-02T09:52:42.411Z,26.85
2022-11-02T09:55:28.003Z,26.20
2022-11-02T09:58:30.393Z,28.92
2022-11-02T10:01:09.590Z,33.15
2022-11-02T10:04:10.467Z,33.72
2022-11-02T10:06:44.277Z,35.03
2022-11-02T10:09:28.309Z,35.47
2022-11-02T10:12:27.147Z,37.58
2022-11-02T10:15:37.148Z,36.10
2022-11-02T10:18:10.538Z,32.92
2022-11-02T10:20:47.068Z,32.08
2022-11-02T10:23:30.515Z,30.33
2022-11-02T10:26:01.349Z,29.30
2022-11-02T10:28:35.092Z,25.52
2022-11-02T10:31:04.448Z,23.27
2022-11-02T10:33:31.823Z,23.67
2022-11-02T10:36:33.881Z,22.17
2022-11-02T10:39:33.652Z,21.08
2022-11-02T10:42:46.848Z,22.55
2022-11-02T10:46:21.526Z,21.02
2022-11-02T10:49:22.783Z,21.63
2022-11-02T10:51:50.479Z,20.35
2022-11-02T10:54:22.751Z,20.98
2022-11-02T10:56:56.793Z,19.70
2022-11-02T10:59:25.678Z,21.33
2022-11-02T11:02:05.101Z,19.92
2022-11-02T11:04:34.626Z,21.33
2022-11-02T11:07:27.441Z,20.90
2022-11-02T11:09:57.398Z,20.60
2022-11-02T11:12:40.942Z,19.77
2022-11-02T11:21:08.840Z,20.08
2022-11-02T11:23:36.193Z,20.60
2022-11-02T11:26:27.495Z,20.85
2022-11-02T11:28:56.820Z,18.63
2022-11-02T11:31:25.183Z,17.25
2022-11-02T11:33:58.475Z,20.23
2022-11-02T11:36:36.761Z,19.30
2022-11-02T11:39:30.813Z,19.30
2022-11-02T11:41:59.747Z,18.92
2022-11-02T11:44:27.317Z,20.27
2022-11-02T11:46:58.466Z,17.35
2022-11-02T11:50:07.358Z,16.27
2022-11-02T11:52:32.680Z,16.42
2022-11-02T11:55:28.257Z,14.57
2022-11-02T11:58:17.031Z,13.90
2022-11-02T12:00:44.981Z,14.15
2022-11-02T12:03:14.254Z,16.08
2022-11-02T12:06:26.130Z,16.95
2022-11-02T12:09:32.281Z,17.50
2022-11-02T12:12:45.434Z,19.60
2022-11-02T12:15:32.093Z,20.17
2022-11-02T12:18:18.212Z,20.13
2022-11-02T12:21:09.870Z,22.27
2022-11-02T12:24:11.199Z,22.38
2022-11-02T12:27:38.263Z,22.73
2022-11-02T12:31:01.565Z,25.45
2022-11-02T12:34:36.199Z,23.48
2022-11-02T12:37:41.418Z,23.38
2022-11-02T12:40:51.967Z,24.10
2022-11-02T12:43:44.948Z,25.95
2022-11-02T12:47:27.156Z,22.50
2022-11-02T12:50:39.085Z,23.00
2022-11-02T12:54:17.623Z,22.98
2022-11-02T12:56:54.311Z,22.45
2022-11-02T12:59:34.699Z,23.13
2022-11-02T13:02:43.049Z,25.55
2022-11-02T13:05:21.388Z,23.83
2022-11-02T13:08:21.310Z,25.67
2022-11-02T13:11:00.025Z,24.77
2022-11-02T13:13:51.456Z,24.70
2022-11-02T13:16:40.992Z,25.73
2022-11-02T13:19:31.071Z,24.23
2022-11-02T13:22:00.401Z,26.05
2022-11-02T13:24:38.136Z,25.15
2022-11-02T13:27:21.857Z,25.30
2022-11-02T13:30:13.498Z,26.17
2022-11-02T13:33:17.806Z,25.90
2022-11-02T13:35:46.278Z,25.73
2022-11-02T13:38:28.151Z,25.48
2022-11-02T13:41:35.081Z,25.42
2022-11-02T13:44:45.274Z,24.40
2022-11-02T13:47:36.780Z,27.95
2022-11-02T13:50:11.792Z,24.40
2022-11-02T13:53:01.750Z,24.48
2022-11-02T13:56:09.643Z,24.33
2022-11-02T13:58:56.056Z,26.30
2022-11-02T14:01:24.711Z,26.90
2022-11-02T14:04:12.122Z,24.83
2022-11-02T14:07:05.787Z,25.05
2022-11-02T14:09:44.575Z,24.23
2022-11-02T14:12:17.536Z,24.80
2022-11-02T14:15:13.796Z,26.00
2022-11-02T14:17:53.200Z,24.17
2022-11-02T14:20:48.795Z,24.50
2022-11-02T14:23:17.980Z,24.20
2022-11-02T14:25:52.110Z,24.27
2022-11-02T14:28:22.594Z,23.38
2022-11-02T14:31:02.024Z,22.27
2022-11-02T14:34:29.630Z,22.80
2022-11-02T14:37:39.203Z,24.50
2022-11-02T14:40:49.067Z,24.95
2022-11-02T14:44:19.632Z,26.05
2022-11-02T14:47:13.414Z,24.35
2022-11-02T14:49:56.501Z,24.67
2022-11-02T14:52:30.102Z,25.20
2022-11-02T14:55:27.608Z,25.50
2022-11-02T14:58:21.514Z,27.75
2022-11-02T15:00:48.910Z,27.38
2022-11-02T15:03:28.717Z,26.60
2022-11-02T15:06:22.729Z,25.48
2022-11-02T15:09:04.181Z,25.40
2022-11-02T15:12:48.899Z,29.05
2022-11-02T15:15:36.568Z,29.27
2022-11-02T15:18:31.607Z,30.30
2022-11-02T15:21:15.406Z,30.70
2022-11-02T15:24:17.342Z,29.77
2022-11-02T15:27:00.303Z,31.08
2022-11-02T15:29:41.380Z,30.50
2022-11-02T15:32:25.716Z,32.03
2022-11-02T15:34:55.466Z,33.33
2022-11-02T15:37:30.188Z,34.58
2022-11-02T15:40:04.415Z,35.07
2022-11-02T15:42:58.373Z,37.63
2022-11-02T15:46:12.873Z,35.63
2022-11-02T15:48:57.782Z,38.75
2022-11-02T15:51:46.201Z,40.33
2022-11-02T15:54:52.204Z,38.95
2022-11-02T15:58:06.360Z,41.57
2022-11-02T16:00:33.838Z,41.00
2022-11-02T16:03:09.464Z,42.05
2022-11-02T16:08:35.989Z,43.55
2022-11-02T16:11:18.447Z,45.53
2022-11-02T16:16:50.148Z,45.33
2022-11-02T16:19:21.947Z,44.38
2022-11-02T16:21:50.072Z,46.17
2022-11-02T16:24:18.418Z,44.30
2022-11-02T16:26:46.745Z,45.75
2022-11-02T16:29:31.458Z,45.95
2022-11-02T16:31:58.921Z,46.35
2022-11-02T16:34:31.482Z,44.85
2022-11-02T16:37:05.926Z,45.75
2022-11-02T16:39:39.578Z,45.40
2022-11-02T16:42:23.255Z,44.78
2022-11-02T16:45:01.150Z,45.38
2022-11-02T16:47:41.001Z,45.75
2022-11-02T16:50:27.174Z,43.63
2022-11-02T16:53:02.474Z,45.28
2022-11-02T16:55:51.647Z,46.13
2022-11-02T16:58:23.666Z,42.28
2022-11-02T17:01:01.835Z,43.88
2022-11-02T17:03:34.416Z,44.55
2022-11-02T17:06:06.271Z,44.10
2022-11-02T17:08:40.551Z,45.38
2022-11-02T17:11:14.853Z,45.75
2022-11-02T17:14:00.012Z,45.90
2022-11-02T17:16:32.916Z,46.80
2022-11-02T17:19:04.102Z,45.03
2022-11-02T17:21:31.367Z,44.50
2022-11-02T17:23:59.630Z,46.95
2022-11-02T17:26:31.017Z,45.77
2022-11-02T17:29:03.893Z,44.00
2022-11-02T17:31:36.126Z,44.20
2022-11-02T17:34:17.976Z,46.35
2022-11-02T17:36:50.564Z,45.95
2022-11-02T17:39:20.881Z,45.10
2022-11-02T17:42:17.019Z,43.65
2022-11-02T17:44:47.708Z,44.15
2022-11-02T17:47:18.670Z,44.08
2022-11-02T17:49:45.913Z,44.13
2022-11-02T17:52:16.481Z,45.20
2022-11-02T17:54:43.866Z,45.85
2022-11-02T17:57:15.348Z,44.63
2022-11-02T17:59:42.698Z,45.35
2022-11-02T18:02:15.544Z,43.05
2022-11-02T18:07:12.203Z,41.95
2022-11-02T18:09:39.768Z,44.35
2022-11-02T18:12:09.909Z,42.10
2022-11-02T18:14:37.132Z,43.17
2022-11-02T18:17:04.301Z,45.63
2022-11-02T18:19:33.269Z,45.15
2022-11-02T18:22:01.507Z,43.65
2022-11-02T18:24:28.797Z,46.50
2022-11-02T18:26:55.992Z,47.13
2022-11-02T18:29:23.356Z,46.25
2022-11-02T18:31:50.661Z,46.60
2022-11-02T18:34:17.820Z,46.13
2022-11-02T18:36:45.017Z,48.22
2022-11-02T18:39:12.244Z,47.33
2022-11-02T18:41:40.379Z,47.17
2022-11-02T18:44:13.781Z,45.35
2022-11-02T18:46:42.754Z,43.92
2022-11-02T18:49:09.948Z,45.00
2022-11-02T18:51:37.246Z,45.30
2022-11-02T18:54:06.190Z,44.95
2022-11-02T18:56:33.697Z,46.63
2022-11-02T18:59:01.806Z,44.67
2022-11-02T19:01:29.338Z,41.63
2022-11-02T19:03:59.685Z,43.22
2022-11-02T19:06:50.172Z,43.85
2022-11-02T19:09:21.480Z,41.70
2022-11-02T19:12:09.504Z,44.67
2022-11-02T19:14:44.359Z,45.10
2022-11-02T19:17:14.310Z,43.95
2022-11-02T19:19:45.172Z,45.08
2022-11-02T19:22:13.355Z,45.88
2022-11-02T19:24:41.066Z,45.85
2022-11-02T19:27:22.254Z,46.10
2022-11-02T19:29:49.868Z,47.97
2022-11-02T19:32:18.398Z,47.30
2022-11-02T19:34:45.988Z,47.45
2022-11-02T19:37:13.885Z,45.72
2022-11-02T19:39:41.153Z,47.50
2022-11-02T19:42:08.496Z,46.13
2022-11-02T19:44:41.238Z,46.28
2022-11-02T19:47:10.829Z,46.35
2022-11-02T19:49:38.530Z,47.05
2022-11-02T19:52:05.782Z,48.42
2022-11-02T19:54:33.123Z,43.50
2022-11-02T19:57:02.910Z,48.28
2022-11-02T19:59:30.951Z,47.00
2022-11-02T20:02:00.322Z,46.40
2022-11-02T20:04:31.588Z,47.55
2022-11-02T20:07:00.010Z,46.35
2022-11-02T20:09:36.630Z,45.83
2022-11-02T20:12:08.032Z,46.72
2022-11-02T20:14:38.693Z,47.55
2022-11-02T20:17:30.291Z,46.15
2022-11-02T20:20:02.678Z,46.72
2022-11-02T20:22:39.163Z,47.80
2022-11-02T20:25:14.756Z,47.50
2022-11-02T20:27:47.428Z,44.80
2022-11-02T20:30:21.768Z,45.08
2022-11-02T20:32:53.116Z,44.72
2022-11-02T20:35:25.921Z,46.15
2022-11-02T20:37:58.254Z,47.53
2022-11-02T20:40:29.482Z,47.95
2022-11-02T20:42:59.871Z,47.80
2022-11-02T20:45:29.496Z,45.67
2022-11-02T20:48:03.331Z,49.28
2022-11-02T20:50:34.026Z,47.22
2022-11-02T20:53:09.517Z,45.53
2022-11-02T20:55:39.281Z,47.08
2022-11-02T20:58:16.331Z,44.50
2022-11-02T21:00:51.942Z,46.90
2022-11-02T21:03:23.812Z,43.55
2022-11-02T21:05:56.865Z,43.75
2022-11-02T21:08:29.799Z,43.97
2022-11-02T21:11:27.246Z,46.42
2022-11-02T21:14:02.027Z,42.47
2022-11-02T21:16:33.183Z,40.08
2022-11-02T21:19:05.208Z,42.22
2022-11-02T21:21:35.640Z,42.50
2022-11-02T21:24:06.337Z,41.58
2022-11-02T21:26:40.321Z,40.63
2022-11-02T21:29:14.914Z,40.13
2022-11-02T21:31:48.262Z,41.17
2022-11-02T21:34:18.838Z,42.38
2022-11-02T21:36:54.529Z,41.78
2022-11-02T21:39:25.206Z,40.38
2022-11-02T21:41:56.324Z,44.00
2022-11-02T21:44:26.442Z,41.75
2022-11-02T21:46:57.550Z,43.83
2022-11-02T21:49:29.326Z,41.35
2022-11-02T21:51:57.975Z,41.55
2022-11-02T21:54:28.715Z,41.28
2022-11-02T21:56:57.951Z,41.75
2022-11-02T21:59:26.372Z,42.83
2022-11-02T22:01:54.202Z,44.63
2022-11-02T22:04:32.048Z,41.80
2022-11-02T22:07:01.647Z,42.85
2022-11-02T22:09:29.415Z,43.42
2022-11-02T22:12:16.045Z,43.42
2022-11-02T22:14:44.695Z,43.28
2022-11-02T22:17:22.152Z,41.88
2022-11-02T22:19:59.847Z,41.83
2022-11-02T22:22:27.724Z,42.97
2022-11-02T22:24:54.960Z,42.60
2022-11-02T22:27:22.132Z,42.35
2022-11-02T22:29:49.440Z,39.55
2022-11-02T22:32:16.711Z,41.47
2022-11-02T22:34:43.969Z,42.30
2022-11-02T22:37:40.774Z,41.40
2022-11-02T22:40:08.872Z,41.47
2022-11-02T22:42:39.751Z,41.47
2022-11-02T22:45:10.333Z,42.53
2022-11-02T22:47:37.549Z,41.58
2022-11-02T22:50:05.943Z,41.10
2022-11-02T22:52:33.084Z,40.30
2022-11-02T22:55:00.316Z,42.35
2022-11-02T22:57:27.577Z,42.90
2022-11-02T22:59:54.802Z,42.00
2022-11-02T23:02:22.125Z,43.15
2022-11-02T23:04:49.456Z,42.75
2022-11-02T23:07:16.655Z,44.42
2022-11-02T23:09:43.799Z,45.22
2022-11-02T23:12:10.948Z,44.85
2022-11-02T23:14:38.136Z,49.10
2022-11-02T23:17:05.274Z,42.42
2022-11-02T23:19:33.022Z,41.78
2022-11-02T23:22:30.039Z,44.33
2022-11-02T23:25:17.990Z,45.83
2022-11-02T23:28:16.373Z,45.80
2022-11-02T23:31:03.197Z,47.20
2022-11-02T23:33:33.742Z,46.95
2022-11-02T23:36:12.447Z,46.65
2022-11-02T23:39:03.792Z,47.88
2022-11-02T23:41:41.528Z,49.20
2022-11-02T23:44:12.567Z,50.85
2022-11-02T23:46:48.386Z,53.15
2022-11-02T23:49:18.114Z,49.28
2022-11-02T23:52:04.370Z,48.22
2022-11-02T23:54:50.391Z,51.38
2022-11-02T23:57:18.641Z,53.78
2022-11-02T23:59:46.188Z,56.40
